Time;durP1;ratioP1;P1;durP2;ratioP2;P2;SDS_P1;SDS_P2;PMS_P1;PMS_P2;Temp;Humidity;BMP_temperature;BMP_pressure;BME280_temperature;BME280_humidity;BME280_pressure;Samples;Min_cycle;Max_cycle;Signal;HPM_P1;HPM_P2
2021/12/04 00:00:47;;;;;;;2.40;2.20;;;3.40;99.90;;;;;;5064832;28;20203;-85
2021/12/04 00:03:14;;;;;;;1.98;1.88;;;3.40;99.90;;;;;;5064522;28;20248;-85
2021/12/04 00:05:45;;;;;;;3.50;1.90;;;3.40;99.90;;;;;;5061760;28;20550;-85
2021/12/04 00:08:12;;;;;;;2.15;2.05;;;3.50;99.90;;;;;;5060330;28;20206;-85
2021/12/04 00:10:41;;;;;;;3.03;2.60;;;3.40;99.90;;;;;;5062065;28;20202;-86
2021/12/04 00:13:15;;;;;;;2.60;2.50;;;3.50;99.90;;;;;;5067508;28;20240;-85
2021/12/04 00:15:43;;;;;;;2.75;2.50;;;3.50;99.90;;;;;;5068463;28;20227;-86
2021/12/04 00:18:09;;;;;;;2.58;2.38;;;3.60;99.90;;;;;;5068389;28;20229;-86
2021/12/04 00:20:38;;;;;;;6.60;2.10;;;3.50;99.90;;;;;;5068510;28;20214;-86
2021/12/04 00:23:05;;;;;;;2.58;2.45;;;3.50;99.90;;;;;;5069898;28;20295;-85
2021/12/04 00:25:32;;;;;;;3.30;2.60;;;3.60;99.90;;;;;;5067041;28;20235;-83
2021/12/04 00:27:58;;;;;;;6.45;2.97;;;3.50;99.90;;;;;;5066163;28;20217;-83
2021/12/04 00:30:27;;;;;;;2.30;2.20;;;3.50;99.90;;;;;;5063938;28;20207;-83
2021/12/04 00:33:00;;;;;;;3.30;3.10;;;3.60;99.90;;;;;;5065089;28;20227;-83
2021/12/04 00:35:38;;;;;;;2.42;2.22;;;3.60;99.90;;;;;;5065226;28;20203;-84
2021/12/04 00:43:17;;;;;;;3.10;2.30;;;3.70;99.90;;;;;;5065303;28;20243;-85
2021/12/04 00:49:19;;;;;;;3.55;2.60;;;3.70;99.90;;;;;;5065012;28;20210;-84
2021/12/04 00:51:50;;;;;;;2.15;1.95;;;3.60;99.90;;;;;;5058503;28;20221;-84
2021/12/04 00:54:17;;;;;;;2.97;2.35;;;3.50;99.90;;;;;;5057552;28;20222;-85
2021/12/04 00:56:47;;;;;;;2.72;2.53;;;3.50;99.90;;;;;;5056939;28;20213;-85
2021/12/04 00:59:17;;;;;;;2.60;2.40;;;3.50;99.90;;;;;;5055647;28;20233;-84
2021/12/04 01:01:44;;;;;;;2.92;2.67;;;3.50;99.90;;;;;;5056500;28;20210;-84
2021/12/04 01:04:16;;;;;;;2.15;2.05;;;3.50;99.90;;;;;;5059214;28;20250;-85
2021/12/04 01:06:50;;;;;;;2.95;2.13;;;3.40;99.90;;;;;;5047349;28;20204;-85
2021/12/04 01:09:22;;;;;;;2.95;2.75;;;3.40;99.90;;;;;;5068529;28;20214;-85
2021/12/04 01:11:50;;;;;;;2.25;2.05;;;3.40;99.90;;;;;;5067839;28;20212;-86
2021/12/04 01:14:19;;;;;;;8.65;2.85;;;3.40;99.90;;;;;;5061451;28;20264;-85
2021/12/04 01:16:47;;;;;;;3.15;2.85;;;3.40;99.90;;;;;;5059102;28;20219;-85
2021/12/04 01:19:18;;;;;;;2.13;1.95;;;3.40;99.90;;;;;;5060412;28;20203;-85
2021/12/04 01:21:47;;;;;;;2.40;2.20;;;3.50;99.90;;;;;;5060920;28;20201;-84
2021/12/04 01:24:14;;;;;;;2.90;2.70;;;3.50;99.90;;;;;;5060144;28;20235;-85
2021/12/04 01:26:41;;;;;;;3.15;2.85;;;3.50;99.90;;;;;;5058680;28;20564;-84
2021/12/04 01:29:08;;;;;;;3.15;2.58;;;3.50;99.90;;;;;;5058464;28;20258;-84
2021/12/04 01:31:35;;;;;;;2.72;1.95;;;3.40;99.90;;;;;;5058124;28;20226;-84
2021/12/04 01:34:02;;;;;;;3.92;3.15;;;3.40;99.90;;;;;;5057621;28;20226;-83
2021/12/04 01:36:29;;;;;;;2.45;1.77;;;3.30;99.90;;;;;;5057555;28;20218;-84
2021/12/04 01:38:57;;;;;;;2.33;1.98;;;3.30;99.90;;;;;;5056999;28;20257;-83
2021/12/04 01:41:24;;;;;;;3.58;3.17;;;3.20;99.90;;;;;;5039784;28;20209;-83
2021/12/04 01:43:51;;;;;;;4.88;3.35;;;3.20;99.90;;;;;;5037488;28;20310;-82
2021/12/04 01:46:18;;;;;;;3.90;3.58;;;3.10;99.90;;;;;;5048093;28;20568;-83
2021/12/04 01:48:45;;;;;;;4.05;3.22;;;3.10;99.90;;;;;;5057083;28;20208;-84
2021/12/04 01:51:11;;;;;;;3.95;3.50;;;3.10;99.90;;;;;;5057015;28;20205;-84
2021/12/04 01:53:38;;;;;;;2.92;2.60;;;3.10;99.90;;;;;;5057936;28;20248;-84
2021/12/04 01:56:06;;;;;;;3.28;2.97;;;3.20;99.90;;;;;;5058791;28;20199;-84
2021/12/04 01:58:33;;;;;;;3.00;2.80;;;3.20;99.90;;;;;;5057015;28;20232;-83
2021/12/04 02:01:00;;;;;;;3.55;3.22;;;3.10;99.90;;;;;;5062680;28;20576;-83
2021/12/04 02:03:27;;;;;;;3.97;2.72;;;3.00;99.90;;;;;;5063838;28;20226;-83
2021/12/04 02:05:53;;;;;;;4.10;2.70;;;3.00;99.90;;;;;;5063597;28;20206;-83
2021/12/04 02:08:22;;;;;;;2.65;2.45;;;2.80;99.90;;;;;;5065505;28;20206;-83
2021/12/04 02:10:51;;;;;;;4.82;4.30;;;2.90;99.90;;;;;;5058449;28;20201;-84
2021/12/04 02:13:20;;;;;;;4.15;3.55;;;2.90;99.90;;;;;;5037756;28;20240;-85
2021/12/04 02:15:48;;;;;;;4.05;3.63;;;2.90;99.90;;;;;;5041551;28;20206;-84
2021/12/04 02:18:16;;;;;;;4.30;3.90;;;2.90;99.90;;;;;;5057180;28;20669;-84
2021/12/04 02:20:44;;;;;;;3.38;2.90;;;2.80;99.90;;;;;;5056955;28;20214;-84
2021/12/04 02:23:11;;;;;;;9.48;5.43;;;2.80;99.90;;;;;;5059124;28;20240;-84
2021/12/04 02:25:39;;;;;;;3.80;3.38;;;2.80;99.90;;;;;;5057745;28;20213;-84
2021/12/04 02:28:07;;;;;;;5.03;3.47;;;2.90;99.90;;;;;;5057983;28;20212;-84
2021/12/04 02:30:37;;;;;;;4.90;4.45;;;2.90;99.90;;;;;;5055413;28;20210;-83
2021/12/04 02:33:11;;;;;;;7.45;4.30;;;2.90;99.90;;;;;;5058744;28;20749;-84
2021/12/04 02:35:38;;;;;;;4.13;3.72;;;2.90;99.90;;;;;;5058513;28;20262;-85
2021/12/04 02:38:06;;;;;;;5.95;4.72;;;2.90;99.90;;;;;;5057893;28;20207;-84
2021/12/04 02:40:33;;;;;;;4.70;4.25;;;2.80;99.90;;;;;;5059612;28;20206;-84
2021/12/04 02:43:00;;;;;;;7.82;5.15;;;2.80;99.90;;;;;;5058946;28;20259;-84
2021/12/04 02:45:26;;;;;;;4.93;4.53;;;2.80;99.90;;;;;;5060325;28;20216;-85
2021/12/04 02:47:53;;;;;;;6.57;4.53;;;2.70;99.90;;;;;;5061206;28;20279;-85
2021/12/04 02:50:20;;;;;;;6.03;4.90;;;2.70;99.90;;;;;;5062917;28;20209;-84
2021/12/04 02:52:47;;;;;;;5.82;5.32;;;2.70;99.90;;;;;;5063591;28;20222;-85
2021/12/04 02:55:16;;;;;;;6.03;5.53;;;2.70;99.90;;;;;;5064411;28;20284;-84
2021/12/04 02:57:44;;;;;;;6.80;6.10;;;2.60;99.90;;;;;;5070360;28;20205;-84
2021/12/04 03:00:17;;;;;;;9.05;6.00;;;2.70;99.90;;;;;;5071032;28;20207;-83
2021/12/04 03:02:44;;;;;;;6.20;5.65;;;2.60;99.90;;;;;;5071669;28;20207;-83
2021/12/04 03:05:12;;;;;;;7.07;6.47;;;2.70;99.90;;;;;;5069884;28;20233;-84
2021/12/04 03:07:39;;;;;;;7.97;6.60;;;2.70;99.90;;;;;;5067246;28;20205;-85
2021/12/04 03:10:08;;;;;;;7.35;6.80;;;2.70;99.90;;;;;;5063523;28;20209;-84
2021/12/04 03:12:37;;;;;;;8.80;7.47;;;2.70;99.90;;;;;;5059853;28;20210;-84
2021/12/04 03:15:04;;;;;;;9.20;5.72;;;2.60;99.90;;;;;;5062910;28;20272;-84
2021/12/04 03:17:31;;;;;;;6.80;6.13;;;2.70;99.90;;;;;;5060683;28;20680;-84
2021/12/04 03:19:58;;;;;;;6.15;5.65;;;2.70;99.90;;;;;;5060339;28;20388;-83
2021/12/04 03:22:25;;;;;;;7.80;7.07;;;2.70;99.90;;;;;;5059330;28;20589;-84
2021/12/04 03:24:52;;;;;;;5.97;5.22;;;2.70;99.90;;;;;;5059795;28;20228;-83
2021/12/04 03:27:20;;;;;;;7.40;6.25;;;2.70;99.90;;;;;;5059281;28;20663;-84
2021/12/04 03:29:53;;;;;;;11.40;7.05;;;2.70;99.90;;;;;;5059892;28;20212;-84
2021/12/04 03:32:50;;;;;;;11.35;7.13;;;2.70;99.90;;;;;;5059051;28;20764;-84
2021/12/04 03:40:01;;;;;;;7.55;6.28;;;2.70;99.90;;;;;;5059755;28;20207;-84
2021/12/04 03:40:59;;;;;;;9.32;6.70;;;2.70;99.90;;;;;;5058029;28;20309;-84
2021/12/04 03:43:25;;;;;;;6.22;5.45;;;2.70;99.90;;;;;;5058611;28;20230;-84
2021/12/04 03:45:58;;;;;;;8.02;5.75;;;2.70;99.90;;;;;;5059043;28;20206;-83
2021/12/04 03:51:22;;;;;;;6.90;5.50;;;2.60;99.90;;;;;;4997092;28;20205;-83
2021/12/04 03:53:49;;;;;;;7.57;5.20;;;2.60;99.90;;;;;;5043009;28;20237;-83
2021/12/04 03:56:20;;;;;;;6.30;5.60;;;2.70;99.90;;;;;;5058228;28;20205;-83
2021/12/04 03:58:47;;;;;;;6.13;5.53;;;2.70;99.90;;;;;;5058255;28;20241;-83
2021/12/04 04:01:16;;;;;;;6.32;5.72;;;2.70;99.90;;;;;;5056065;28;20196;-83
2021/12/04 04:03:42;;;;;;;5.00;4.60;;;2.80;99.90;;;;;;5058048;28;20233;-83
2021/12/04 04:06:09;;;;;;;3.78;3.47;;;2.80;99.90;;;;;;5058630;28;20213;-84
2021/12/04 04:08:36;;;;;;;3.55;3.25;;;2.80;99.90;;;;;;5060111;28;20261;-85
2021/12/04 04:11:03;;;;;;;5.32;4.38;;;2.90;99.90;;;;;;5059079;28;20207;-83
2021/12/04 04:16:36;;;;;;;3.10;2.50;;;2.90;99.90;;;;;;5560610;22;20229;-88
2021/12/04 08:17:37;;;;;;;0.40;0.40;;;5.40;99.90;;;;;;4980920;28;20215;-84
2021/12/04 08:20:05;;;;;;;1.23;0.60;;;5.50;99.90;;;;;;4999449;28;20253;-82
2021/12/04 08:22:33;;;;;;;0.93;0.40;;;5.50;99.90;;;;;;5065636;28;20252;-83
2021/12/04 08:25:00;;;;;;;0.63;0.63;;;5.60;99.90;;;;;;5075009;28;20226;-83
2021/12/04 08:27:27;;;;;;;2.72;0.85;;;5.70;99.90;;;;;;5072643;28;20213;-83
2021/12/04 08:29:54;;;;;;;1.05;0.80;;;5.70;99.90;;;;;;5079281;28;20198;-83
2021/12/04 08:32:23;;;;;;;1.38;0.70;;;5.90;99.90;;;;;;5076815;28;20204;-83
2021/12/04 08:34:51;;;;;;;0.60;0.60;;;5.90;99.90;;;;;;5082046;28;20598;-83
2021/12/04 08:37:19;;;;;;;0.68;0.68;;;5.90;99.90;;;;;;5076725;28;20205;-83
2021/12/04 08:39:47;;;;;;;0.80;0.80;;;6.00;99.90;;;;;;5081247;28;20201;-83
2021/12/04 08:42:14;;;;;;;0.77;0.77;;;6.00;99.90;;;;;;5070433;28;20218;-82
2021/12/04 08:44:41;;;;;;;1.48;0.85;;;5.90;99.90;;;;;;5071490;28;20217;-82
2021/12/04 08:47:08;;;;;;;2.45;0.80;;;6.00;99.90;;;;;;5076972;28;20225;-83
2021/12/04 08:49:47;;;;;;;0.80;0.80;;;6.10;99.90;;;;;;5066234;28;20208;-81
2021/12/04 08:52:33;;;;;;;0.70;0.70;;;6.10;99.90;;;;;;5050919;28;20217;-81
2021/12/04 08:55:00;;;;;;;1.00;0.90;;;6.10;99.90;;;;;;5059635;28;20228;-81
2021/12/04 08:57:27;;;;;;;0.88;0.88;;;6.20;99.90;;;;;;5058733;28;20233;-80
2021/12/04 08:59:54;;;;;;;0.82;0.80;;;6.30;99.90;;;;;;5058504;28;20284;-79
2021/12/04 09:02:22;;;;;;;1.00;1.00;;;6.40;99.90;;;;;;5065331;28;20252;-79
2021/12/04 09:04:50;;;;;;;0.80;0.80;;;6.40;99.90;;;;;;5066048;28;20220;-80
2021/12/04 09:07:18;;;;;;;1.25;0.80;;;6.40;99.90;;;;;;5065946;28;20221;-80
2021/12/04 09:09:47;;;;;;;0.85;0.75;;;6.30;99.90;;;;;;5058583;28;20619;-80
2021/12/04 09:12:16;;;;;;;0.68;0.68;;;6.40;99.90;;;;;;5058073;28;20686;-80
2021/12/04 09:14:44;;;;;;;0.60;0.60;;;6.40;99.90;;;;;;5058493;28;20636;-79
2021/12/04 09:17:13;;;;;;;0.88;0.88;;;6.40;99.90;;;;;;5058817;28;20210;-79
2021/12/04 09:19:41;;;;;;;0.73;0.73;;;6.40;99.90;;;;;;5057648;28;20642;-80
2021/12/04 09:22:15;;;;;;;0.60;0.60;;;6.40;99.90;;;;;;5057779;28;20197;-79
2021/12/04 09:24:45;;;;;;;1.13;1.10;;;6.50;99.90;;;;;;5058895;28;20252;-81
2021/12/04 09:27:19;;;;;;;0.75;0.75;;;6.50;99.90;;;;;;5052669;28;20259;-79
2021/12/04 09:30:02;;;;;;;1.60;1.30;;;6.50;99.90;;;;;;5058010;28;20195;-80
2021/12/04 09:35:59;;;;;;;0.73;0.73;;;6.60;99.90;;;;;;5058290;28;20210;-79
2021/12/04 10:00:44;;;;;;;0.98;0.88;;;7.20;99.90;;;;;;5045247;28;20190;-81
2021/12/04 10:03:32;;;;;;;0.90;0.90;;;7.20;99.90;;;;;;5058674;28;20213;-80
2021/12/04 10:06:32;;;;;;;1.15;1.00;;;7.40;99.90;;;;;;5059146;28;20197;-79
2021/12/04 10:17:55;;;;;;;0.73;0.73;;;7.50;99.90;;;;;;5026457;28;20277;-82
2021/12/04 10:20:34;;;;;;;0.85;0.80;;;7.50;99.90;;;;;;5022517;28;20242;-82
2021/12/04 10:23:13;;;;;;;2.72;0.90;;;7.70;99.90;;;;;;5051632;28;20208;-84
2021/12/04 10:34:06;;;;;;;0.70;0.70;;;8.00;99.90;;;;;;5051354;28;20256;-83
2021/12/04 10:36:40;;;;;;;1.20;0.60;;;8.00;99.90;;;;;;5069937;28;20210;-83
2021/12/04 10:39:09;;;;;;;0.90;0.90;;;8.10;99.90;;;;;;5069666;28;20323;-82
2021/12/04 10:41:40;;;;;;;0.60;0.52;;;8.20;99.90;;;;;;5067574;28;20241;-82
2021/12/04 10:44:13;;;;;;;2.17;1.10;;;8.20;99.90;;;;;;5067544;28;20289;-83
2021/12/04 10:46:40;;;;;;;1.05;0.75;;;8.20;99.90;;;;;;5066735;28;20217;-84
2021/12/04 10:49:14;;;;;;;0.80;0.80;;;8.30;99.90;;;;;;5068209;28;20216;-84
2021/12/04 10:51:48;;;;;;;0.95;0.63;;;8.30;99.90;;;;;;5064322;28;20216;-84
2021/12/04 10:54:23;;;;;;;0.77;0.60;;;8.40;99.90;;;;;;5062317;28;20237;-83
2021/12/04 10:57:03;;;;;;;1.00;1.00;;;8.50;99.90;;;;;;5062495;28;20296;-83
2021/12/04 10:59:45;;;;;;;0.80;0.80;;;8.50;99.90;;;;;;5063102;28;20243;-83
2021/12/04 11:02:18;;;;;;;0.80;0.80;;;8.50;99.90;;;;;;5062845;28;20725;-83
2021/12/04 11:04:49;;;;;;;0.80;0.80;;;8.70;99.90;;;;;;5063874;28;20226;-83
2021/12/04 11:24:25;;;;;;;0.80;0.80;;;9.00;99.90;;;;;;5055148;28;20587;-84
2021/12/04 11:27:09;;;;;;;1.17;0.88;;;9.10;99.90;;;;;;5061452;28;20264;-84
2021/12/04 11:38:06;;;;;;;0.95;0.73;;;9.30;99.90;;;;;;5063007;28;20193;-83
2021/12/04 11:43:26;;;;;;;0.55;0.55;;;9.20;99.90;;;;;;5042739;28;20276;-84
2021/12/04 11:46:12;;;;;;;0.80;0.80;;;9.10;99.90;;;;;;5059081;28;20327;-85
2021/12/04 11:48:41;;;;;;;0.40;0.40;;;9.10;99.90;;;;;;5059029;28;20574;-83
2021/12/04 11:51:13;;;;;;;0.50;0.50;;;9.10;99.90;;;;;;5058053;28;20209;-84
2021/12/04 11:53:41;;;;;;;0.95;0.47;;;9.20;99.90;;;;;;5060548;28;20241;-83
2021/12/04 11:56:15;;;;;;;0.75;0.75;;;9.20;99.90;;;;;;5062675;28;20205;-84
2021/12/04 11:58:43;;;;;;;0.50;0.50;;;9.20;99.90;;;;;;5062094;28;20210;-85
2021/12/04 12:01:21;;;;;;;0.55;0.50;;;9.20;99.90;;;;;;5061525;28;20206;-83
2021/12/04 12:03:52;;;;;;;1.58;0.60;;;9.20;99.90;;;;;;5062360;28;20229;-83
2021/12/04 12:06:30;;;;;;;3.90;0.88;;;9.20;99.90;;;;;;5062555;28;20264;-84
2021/12/04 12:09:12;;;;;;;0.50;0.50;;;9.30;99.90;;;;;;5062486;28;20215;-83
2021/12/04 12:11:49;;;;;;;0.47;0.45;;;9.30;99.90;;;;;;5062441;28;20205;-83
2021/12/04 12:14:20;;;;;;;0.70;0.60;;;9.30;99.90;;;;;;5061595;28;20225;-82
2021/12/04 12:16:49;;;;;;;0.57;0.57;;;9.30;99.90;;;;;;5060625;28;20268;-84
2021/12/04 12:19:25;;;;;;;0.98;0.55;;;9.20;99.90;;;;;;5062504;28;20202;-84
2021/12/04 12:21:56;;;;;;;0.77;0.55;;;9.20;99.90;;;;;;5062091;28;20233;-84
2021/12/04 12:27:28;;;;;;;0.47;0.47;;;9.20;99.90;;;;;;5063230;28;20264;-84
2021/12/04 12:32:55;;;;;;;0.63;0.63;;;9.10;99.90;;;;;;5062100;28;20204;-83
2021/12/04 12:38:16;;;;;;;0.85;0.68;;;9.20;99.90;;;;;;5063032;28;20204;-84
2021/12/04 12:40:57;;;;;;;0.63;0.63;;;9.10;99.90;;;;;;5062006;28;20210;-84
2021/12/04 12:43:32;;;;;;;0.80;0.80;;;9.20;99.90;;;;;;5057538;28;20206;-82
2021/12/04 12:45:59;;;;;;;0.60;0.60;;;9.20;99.90;;;;;;5056983;28;20209;-83
2021/12/04 12:48:26;;;;;;;0.70;0.70;;;9.20;99.90;;;;;;5056639;28;20206;-82
2021/12/04 12:50:54;;;;;;;1.63;0.90;;;9.20;99.90;;;;;;5056429;28;20206;-83
2021/12/04 12:53:27;;;;;;;0.68;0.68;;;9.30;99.90;;;;;;5056448;28;20208;-82
2021/12/04 12:56:06;;;;;;;0.60;0.60;;;9.30;99.90;;;;;;5056973;28;20253;-83
2021/12/04 12:58:41;;;;;;;0.50;0.50;;;9.30;99.90;;;;;;5056811;28;20241;-82
2021/12/04 13:12:12;;;;;;;2.10;0.95;;;9.10;99.90;;;;;;5057647;28;20212;-82
2021/12/04 13:14:50;;;;;;;1.40;0.82;;;9.00;99.90;;;;;;5058363;28;20283;-81
2021/12/04 13:17:20;;;;;;;2.75;1.00;;;8.90;99.90;;;;;;5057843;28;20644;-82
2021/12/04 13:19:49;;;;;;;1.08;0.98;;;8.80;99.90;;;;;;5058236;28;20217;-81
2021/12/04 13:22:18;;;;;;;0.80;0.80;;;8.90;99.90;;;;;;5057316;28;20749;-82
2021/12/04 13:24:48;;;;;;;0.93;0.70;;;9.00;99.90;;;;;;5056953;28;20233;-81
2021/12/04 13:29:46;;;;;;;0.73;0.70;;;8.90;99.90;;;;;;5057232;28;20592;-83
2021/12/04 13:32:15;;;;;;;1.25;0.65;;;8.90;99.90;;;;;;5056470;28;20225;-81
2021/12/04 13:34:43;;;;;;;0.85;0.85;;;8.80;99.90;;;;;;5056986;28;20241;-81
2021/12/04 13:37:11;;;;;;;1.58;0.90;;;8.90;99.90;;;;;;5056632;28;20208;-81
2021/12/04 13:39:39;;;;;;;1.30;0.90;;;8.90;99.90;;;;;;5057219;28;20201;-82
2021/12/04 13:42:06;;;;;;;1.00;0.90;;;9.00;99.90;;;;;;5056743;28;20212;-82
2021/12/04 13:44:38;;;;;;;0.88;0.88;;;8.90;99.90;;;;;;5056633;28;20226;-82
2021/12/04 13:47:07;;;;;;;1.70;1.60;;;8.90;99.90;;;;;;5057094;28;20216;-82
2021/12/04 13:49:39;;;;;;;1.33;1.10;;;8.80;99.90;;;;;;5057763;28;20566;-82
2021/12/04 13:52:09;;;;;;;1.08;1.08;;;8.90;99.90;;;;;;5057149;28;20214;-82
2021/12/04 13:54:41;;;;;;;1.13;1.02;;;8.90;99.90;;;;;;5058646;28;20244;-84
2021/12/04 13:57:10;;;;;;;3.53;1.15;;;8.80;99.90;;;;;;5061179;28;20216;-84
2021/12/04 13:59:39;;;;;;;2.10;1.55;;;8.80;99.90;;;;;;5063349;28;20198;-82
2021/12/04 14:02:07;;;;;;;2.10;1.95;;;8.70;99.90;;;;;;5064315;28;20205;-83
2021/12/04 14:04:36;;;;;;;2.03;1.20;;;8.70;99.90;;;;;;5066139;28;20235;-84
2021/12/04 14:07:04;;;;;;;1.27;1.17;;;8.70;99.90;;;;;;5067473;28;20206;-84
2021/12/04 14:09:32;;;;;;;1.20;1.05;;;8.70;99.90;;;;;;5070337;28;20185;-83
2021/12/04 14:11:59;;;;;;;1.92;1.77;;;8.50;99.90;;;;;;5071522;28;20205;-83
2021/12/04 14:14:29;;;;;;;1.75;1.65;;;8.50;99.90;;;;;;5069061;28;20230;-84
2021/12/04 14:17:05;;;;;;;1.55;1.45;;;8.50;99.90;;;;;;5068531;28;20662;-83
2021/12/04 14:19:33;;;;;;;1.27;1.17;;;8.50;99.90;;;;;;5068389;28;20209;-84
2021/12/04 14:22:02;;;;;;;2.05;1.13;;;8.40;99.90;;;;;;5066980;28;20567;-82
2021/12/04 14:24:31;;;;;;;1.17;1.15;;;8.40;99.90;;;;;;5066959;28;20240;-84
2021/12/04 14:27:01;;;;;;;2.95;2.67;;;8.40;99.90;;;;;;5066927;28;20491;-84
2021/12/04 14:29:33;;;;;;;1.50;0.95;;;8.50;99.90;;;;;;5065323;28;20202;-84
2021/12/04 14:32:02;;;;;;;1.55;1.45;;;8.40;99.90;;;;;;5062580;28;20679;-84
2021/12/04 14:34:30;;;;;;;3.47;1.35;;;8.40;99.90;;;;;;5061945;28;20229;-83
2021/12/04 14:37:10;;;;;;;1.30;1.20;;;8.30;99.90;;;;;;5062077;28;20201;-84
2021/12/04 14:39:38;;;;;;;1.60;1.50;;;8.30;99.90;;;;;;5062603;28;20208;-84
2021/12/04 14:42:15;;;;;;;1.42;1.33;;;8.20;99.90;;;;;;5059939;28;20206;-84
2021/12/04 14:44:42;;;;;;;1.25;0.70;;;8.30;99.90;;;;;;5061243;28;20497;-84
2021/12/04 14:47:11;;;;;;;1.20;1.10;;;8.20;99.90;;;;;;5063559;28;20210;-84
2021/12/04 14:49:41;;;;;;;1.30;1.20;;;8.30;99.90;;;;;;5064721;28;20205;-82
2021/12/04 14:52:08;;;;;;;2.67;1.50;;;8.30;99.90;;;;;;5063643;28;20238;-84
2021/12/04 14:54:38;;;;;;;5.40;1.30;;;8.20;99.90;;;;;;5063618;28;20221;-83
2021/12/04 14:57:14;;;;;;;3.28;1.35;;;8.10;99.90;;;;;;5062187;28;20209;-83
2021/12/04 14:59:41;;;;;;;1.55;1.45;;;8.20;99.90;;;;;;5063470;28;20242;-83
2021/12/04 15:02:16;;;;;;;2.67;2.05;;;8.20;99.90;;;;;;5062075;28;20244;-84
2021/12/04 15:04:43;;;;;;;1.20;1.15;;;8.10;99.90;;;;;;5066770;28;20226;-82
2021/12/04 15:07:19;;;;;;;1.48;1.30;;;8.10;99.90;;;;;;5065707;28;20214;-84
2021/12/04 15:09:46;;;;;;;1.40;1.40;;;8.10;99.90;;;;;;5066229;28;20206;-84
2021/12/04 15:12:23;;;;;;;1.90;1.67;;;8.10;99.90;;;;;;5067175;28;20686;-82
2021/12/04 15:14:54;;;;;;;1.25;1.23;;;8.10;99.90;;;;;;5067898;28;20296;-84
2021/12/04 15:17:23;;;;;;;1.60;1.50;;;8.20;99.90;;;;;;5064944;28;20212;-83
2021/12/04 15:19:53;;;;;;;1.00;1.00;;;8.20;99.90;;;;;;5067446;28;20300;-84
2021/12/04 15:22:27;;;;;;;2.00;1.77;;;8.20;99.90;;;;;;5066377;28;20659;-84
2021/12/04 15:24:55;;;;;;;0.77;0.77;;;8.20;99.90;;;;;;5064667;28;20226;-84
2021/12/04 15:27:23;;;;;;;2.00;1.90;;;8.20;99.90;;;;;;5064278;28;20683;-85
2021/12/04 15:29:54;;;;;;;1.60;1.50;;;8.20;99.90;;;;;;5063563;28;20202;-84
2021/12/04 15:32:24;;;;;;;1.30;1.30;;;8.20;99.90;;;;;;5064184;28;20296;-84
2021/12/04 15:34:53;;;;;;;2.30;1.65;;;8.20;99.90;;;;;;5062799;28;20256;-82
2021/12/04 15:37:28;;;;;;;1.60;1.50;;;8.20;99.90;;;;;;5062401;28;20212;-84
2021/12/04 15:39:55;;;;;;;1.67;1.58;;;8.20;99.90;;;;;;5062240;28;20296;-82
2021/12/04 15:42:28;;;;;;;1.77;1.40;;;8.20;99.90;;;;;;5061956;28;20209;-84
2021/12/04 15:45:12;;;;;;;2.78;2.38;;;8.20;99.90;;;;;;5061979;28;20241;-82
2021/12/04 15:47:47;;;;;;;2.15;1.77;;;8.30;99.90;;;;;;5061197;28;20614;-82
2021/12/04 15:50:43;;;;;;;2.28;2.15;;;8.20;99.90;;;;;;5061654;28;20586;-82
2021/12/04 15:53:12;;;;;;;3.22;1.73;;;8.20;99.90;;;;;;5063481;28;20237;-84
2021/12/04 15:55:42;;;;;;;1.30;1.20;;;8.20;99.90;;;;;;5062894;28;20276;-84
2021/12/04 15:58:14;;;;;;;2.45;2.35;;;8.20;99.90;;;;;;5062189;28;20269;-84
2021/12/04 16:00:44;;;;;;;2.83;2.63;;;8.20;99.90;;;;;;5062141;28;20217;-84
2021/12/04 16:03:16;;;;;;;1.90;1.80;;;8.20;99.90;;;;;;5063379;28;20201;-83
2021/12/04 16:05:50;;;;;;;1.88;1.70;;;8.20;99.90;;;;;;5063587;28;20230;-84
2021/12/04 16:08:19;;;;;;;2.58;2.38;;;8.20;99.90;;;;;;5063051;28;20202;-84
2021/12/04 16:10:48;;;;;;;3.38;3.05;;;8.20;99.90;;;;;;5063060;28;20209;-84
2021/12/04 16:13:23;;;;;;;2.45;1.92;;;8.30;99.90;;;;;;5063093;28;20244;-84
2021/12/04 16:15:50;;;;;;;2.63;1.88;;;8.30;99.90;;;;;;6047188;22;20245;-80
2021/12/04 16:18:18;;;;;;;2.15;1.95;;;8.30;99.90;;;;;;5060627;28;20212;-79
2021/12/04 16:20:46;;;;;;;2.83;2.63;;;8.40;99.90;;;;;;5060118;28;20217;-80
2021/12/04 16:23:15;;;;;;;5.70;3.20;;;8.40;99.90;;;;;;5061230;28;20243;-79
2021/12/04 16:25:43;;;;;;;4.50;2.30;;;8.50;99.90;;;;;;5060428;28;20736;-80
2021/12/04 16:28:31;;;;;;;1.67;1.58;;;8.40;99.90;;;;;;5060681;28;20236;-80
2021/12/04 16:31:15;;;;;;;1.85;1.75;;;8.40;99.90;;;;;;5059996;28;20672;-81
2021/12/04 16:33:50;;;;;;;1.85;1.75;;;8.40;99.90;;;;;;5059668;28;20721;-80
2021/12/04 16:36:22;;;;;;;1.75;1.38;;;8.40;99.90;;;;;;5059728;28;20205;-79
2021/12/04 16:38:50;;;;;;;2.67;2.10;;;8.30;99.90;;;;;;5059700;28;20296;-80
2021/12/04 16:41:19;;;;;;;1.52;1.42;;;8.30;99.90;;;;;;5060032;28;20210;-79
2021/12/04 16:43:46;;;;;;;1.75;1.65;;;8.20;99.90;;;;;;5059268;28;20206;-80
2021/12/04 16:46:16;;;;;;;2.17;1.98;;;8.20;99.90;;;;;;5058865;28;20233;-79
2021/12/04 16:48:48;;;;;;;1.63;1.50;;;8.10;99.90;;;;;;5058717;28;20186;-82
2021/12/04 16:57:19;;;;;;;1.73;1.50;;;8.10;99.90;;;;;;5058731;28;20189;-79
2021/12/04 16:59:49;;;;;;;1.50;1.38;;;8.10;99.90;;;;;;5058805;28;20214;-80
2021/12/04 17:02:16;;;;;;;1.35;1.25;;;8.10;99.90;;;;;;5058545;28;20217;-80
2021/12/04 17:04:45;;;;;;;1.50;1.25;;;8.10;99.90;;;;;;5058597;28;20233;-81
2021/12/04 17:07:12;;;;;;;1.60;1.50;;;8.20;99.90;;;;;;5058190;28;20241;-80
2021/12/04 17:09:39;;;;;;;1.75;0.85;;;8.20;99.90;;;;;;5058630;28;20209;-80
2021/12/04 17:12:06;;;;;;;1.63;1.48;;;8.10;99.90;;;;;;5058806;28;20218;-80
2021/12/04 17:14:34;;;;;;;1.15;1.15;;;8.10;99.90;;;;;;5057950;28;20236;-80
2021/12/04 17:17:03;;;;;;;1.80;1.70;;;8.20;99.90;;;;;;5057942;28;20217;-79
2021/12/04 17:19:30;;;;;;;2.78;1.30;;;8.10;99.90;;;;;;5058686;28;20205;-81
2021/12/04 17:21:59;;;;;;;1.17;1.17;;;8.20;99.90;;;;;;5058845;28;20205;-80
2021/12/04 17:24:29;;;;;;;1.73;1.63;;;8.20;99.90;;;;;;5057791;28;20225;-79
2021/12/04 17:26:57;;;;;;;1.40;1.38;;;8.20;99.90;;;;;;5059462;28;20201;-80
2021/12/04 17:29:24;;;;;;;2.60;2.40;;;8.10;99.90;;;;;;5059653;28;20212;-79
2021/12/04 17:31:52;;;;;;;3.47;3.17;;;8.20;99.90;;;;;;5071045;28;20292;-82
2021/12/04 17:34:19;;;;;;;2.90;2.65;;;8.10;99.90;;;;;;5072243;28;20243;-82
2021/12/04 17:36:47;;;;;;;3.53;3.20;;;8.00;99.90;;;;;;5062700;28;20215;-83
2021/12/04 17:39:17;;;;;;;2.78;2.05;;;8.10;99.90;;;;;;5060544;28;20212;-85
2021/12/04 17:41:45;;;;;;;2.38;2.28;;;8.10;99.90;;;;;;5063157;28;20225;-83
2021/12/04 17:44:18;;;;;;;3.30;1.58;;;8.20;99.90;;;;;;5068526;28;20224;-81
2021/12/04 17:46:46;;;;;;;1.50;1.40;;;8.20;99.90;;;;;;5063937;28;20240;-84
2021/12/04 17:49:16;;;;;;;1.38;1.33;;;8.10;99.90;;;;;;5064257;28;20242;-85
2021/12/04 17:51:43;;;;;;;2.17;1.30;;;8.10;99.90;;;;;;5068841;28;20276;-85
2021/12/04 17:54:11;;;;;;;2.13;1.00;;;8.00;99.90;;;;;;5065522;28;20233;-85
2021/12/04 17:56:40;;;;;;;1.58;1.42;;;7.90;99.90;;;;;;5068415;28;20208;-85
2021/12/04 17:59:08;;;;;;;1.10;1.05;;;7.90;99.90;;;;;;5059454;28;20210;-84
2021/12/04 18:01:39;;;;;;;1.33;1.23;;;7.80;99.90;;;;;;5069004;28;20201;-85
2021/12/04 18:04:08;;;;;;;1.25;1.15;;;7.80;99.90;;;;;;5071939;28;20200;-84
2021/12/04 18:06:36;;;;;;;0.80;0.80;;;7.80;99.90;;;;;;5077164;28;20225;-86
2021/12/04 18:09:07;;;;;;;1.95;1.45;;;7.60;99.90;;;;;;5074134;28;20205;-86
2021/12/04 18:11:38;;;;;;;1.23;0.90;;;7.40;99.90;;;;;;5087478;28;20209;-86
2021/12/04 18:14:10;;;;;;;0.88;0.88;;;7.40;99.90;;;;;;5085574;28;20222;-86
2021/12/04 18:16:43;;;;;;;1.20;1.08;;;7.20;99.90;;;;;;5076589;28;20220;-85
2021/12/04 18:19:13;;;;;;;1.83;1.70;;;7.10;99.90;;;;;;5081461;28;20258;-85
2021/12/04 18:21:41;;;;;;;1.08;1.08;;;7.00;99.90;;;;;;5080147;28;20288;-85
2021/12/04 18:24:08;;;;;;;0.50;0.50;;;6.90;99.90;;;;;;5077298;28;20221;-85
2021/12/04 18:26:35;;;;;;;0.70;0.70;;;6.80;99.90;;;;;;5064486;28;20214;-85
2021/12/04 18:29:03;;;;;;;1.10;0.95;;;6.70;99.90;;;;;;5053492;28;20206;-85
2021/12/04 18:31:31;;;;;;;0.90;0.90;;;6.60;99.90;;;;;;5063842;28;20202;-88
2021/12/04 18:34:04;;;;;;;1.02;1.02;;;6.50;99.90;;;;;;5070522;28;20253;-85
2021/12/04 18:36:31;;;;;;;5.47;1.70;;;6.50;99.90;;;;;;5071435;28;20225;-86
2021/12/04 18:38:58;;;;;;;1.77;1.67;;;6.40;99.90;;;;;;5087005;28;20235;-87
2021/12/04 18:41:26;;;;;;;7.72;4.57;;;6.30;99.90;;;;;;5077966;28;20784;-84
2021/12/04 18:44:03;;;;;;;2.47;1.52;;;6.30;99.90;;;;;;5070739;28;20212;-86
2021/12/04 18:46:33;;;;;;;4.82;2.95;;;6.30;99.90;;;;;;5067940;28;20250;-85
2021/12/04 18:49:00;;;;;;;1.08;1.08;;;6.20;99.90;;;;;;5070110;28;20255;-86
2021/12/04 18:51:27;;;;;;;0.85;0.80;;;6.20;99.90;;;;;;5069602;28;20240;-85
2021/12/04 18:53:57;;;;;;;1.83;1.30;;;6.20;99.90;;;;;;5069919;28;20200;-86
2021/12/04 18:56:25;;;;;;;1.40;1.10;;;6.20;99.90;;;;;;5068541;28;20216;-86
2021/12/04 18:58:53;;;;;;;2.30;1.45;;;6.20;99.90;;;;;;5073345;28;20220;-89
2021/12/04 19:01:21;;;;;;;1.20;1.20;;;6.20;99.90;;;;;;5081334;28;20178;-88
2021/12/04 19:03:56;;;;;;;1.55;1.00;;;6.20;99.90;;;;;;5080739;28;20245;-88
2021/12/04 19:06:28;;;;;;;0.90;0.90;;;6.20;99.90;;;;;;5079076;28;20232;-87
2021/12/04 19:09:03;;;;;;;2.08;1.63;;;6.10;99.90;;;;;;5071579;28;20217;-85